Jefferson, Illinois
Current Conditions -  °F | °C
As of 5:51 PM on Saturday 25 Oct 2014 (Local Time) from KORD Reporting Station
Clear Clear  
Wind Chill: 66°   Ceiling: Unl
Heat Index: 66°   Visibility: 10mi
Dew Point: 26°   Wind: 13mph
Humidity: 22%   Direction: 290°WNW
Pressure: 29.91"   Gusts: NA
Location:  41.9738°N, 87.7498°W
Report Text: KORD 252251Z 29011KT 10SM CLR 19/M03 A2991 RMK AO2 SLP126 T01891033
Loading
Personal Weather Stations






























Interactive Weather Map
Tropical Storm Tracking
New forecast layout! Learn more

10-Day Weather Forecast

Advertisements
Track Severe Weather on mobile